createdAt,value
2023-05-06T00:01:46.300Z,100379.14
2023-05-06T00:04:13.374Z,100387.34
2023-05-06T00:06:41.868Z,100395.59
2023-05-06T00:09:08.657Z,100405.83
2023-05-06T00:11:35.474Z,100403.11
2023-05-06T00:14:02.252Z,100407.32
2023-05-06T00:16:29.119Z,100403.35
2023-05-06T00:18:55.949Z,100404.09
2023-05-06T00:21:22.723Z,100403.80
2023-05-06T00:23:49.447Z,100404.36
2023-05-06T00:26:16.352Z,100404.96
2023-05-06T00:28:43.121Z,100404.68
2023-05-06T00:31:10.017Z,100405.98
2023-05-06T00:33:37.057Z,100408.05
2023-05-06T00:36:04.153Z,100410.90
2023-05-06T00:38:31.054Z,100414.67
2023-05-06T00:40:57.899Z,100422.63
2023-05-06T00:43:25.257Z,100421.41
2023-05-06T00:45:52.154Z,100426.41
2023-05-06T00:48:19.063Z,100424.79
2023-05-06T00:50:45.833Z,100422.77
2023-05-06T00:53:12.713Z,100427.94
2023-05-06T00:55:39.856Z,100428.91
2023-05-06T00:58:06.704Z,100432.27
2023-05-06T01:00:33.653Z,100434.36
2023-05-06T01:03:02.737Z,100432.30
2023-05-06T01:05:34.418Z,100423.37
2023-05-06T01:08:26.429Z,100425.38
2023-05-06T01:11:24.332Z,100424.05
2023-05-06T01:14:00.155Z,100422.52
2023-05-06T01:16:32.418Z,100422.70
2023-05-06T01:18:59.429Z,100421.48
2023-05-06T01:21:26.809Z,100424.35
2023-05-06T01:23:58.409Z,100434.39
2023-05-06T01:26:26.519Z,100439.00
2023-05-06T01:28:54.209Z,100437.90
2023-05-06T01:31:30.342Z,100440.47
2023-05-06T01:34:21.290Z,100453.30
2023-05-06T01:37:06.841Z,100463.28
2023-05-06T01:39:33.701Z,100465.84
2023-05-06T01:42:00.897Z,100466.61
2023-05-06T01:44:29.477Z,100467.66
2023-05-06T01:46:56.370Z,100464.64
2023-05-06T01:49:23.713Z,100465.08
2023-05-06T01:51:51.773Z,100471.34
2023-05-06T01:54:18.683Z,100463.97
2023-05-06T01:56:46.743Z,100465.49
2023-05-06T01:59:15.000Z,100464.52
2023-05-06T02:01:41.832Z,100464.70
2023-05-06T02:04:08.927Z,100459.33
2023-05-06T02:06:36.201Z,100462.80
2023-05-06T02:09:04.414Z,100467.94
2023-05-06T02:11:34.082Z,100478.36
2023-05-06T02:14:06.511Z,100480.42
2023-05-06T02:16:34.288Z,100478.92
2023-05-06T02:19:01.186Z,100480.66
2023-05-06T02:21:28.242Z,100478.73
2023-05-06T02:23:55.102Z,100482.63
2023-05-06T02:26:23.173Z,100485.52
2023-05-06T02:28:50.129Z,100490.09
2023-05-06T02:31:17.062Z,100485.71
2023-05-06T02:33:45.056Z,100483.15
2023-05-06T02:36:11.910Z,100483.73
2023-05-06T02:38:38.749Z,100485.02
2023-05-06T02:41:05.564Z,100487.49
2023-05-06T02:43:33.026Z,100493.60
2023-05-06T02:46:00.058Z,100493.08
2023-05-06T02:48:26.998Z,100489.01
2023-05-06T02:50:53.890Z,100500.79
2023-05-06T02:53:20.820Z,100508.36
2023-05-06T02:55:47.773Z,100507.30
2023-05-06T02:58:14.940Z,100508.92
2023-05-06T03:00:42.062Z,100511.08
2023-05-06T03:03:09.977Z,100519.58
2023-05-06T03:05:36.881Z,100516.18
2023-05-06T03:08:05.397Z,100515.06
2023-05-06T03:10:32.682Z,100517.61
2023-05-06T03:13:00.318Z,100522.95
2023-05-06T03:15:28.398Z,100522.31
2023-05-06T03:17:55.868Z,100525.60
2023-05-06T03:20:23.757Z,100528.67
2023-05-06T03:22:52.595Z,100526.88
2023-05-06T03:25:20.078Z,100528.34
2023-05-06T03:27:47.394Z,100529.92
2023-05-06T03:30:18.210Z,100544.48
2023-05-06T03:32:45.529Z,100552.38
2023-05-06T03:35:15.143Z,100557.64
2023-05-06T03:37:43.358Z,100556.19
2023-05-06T03:40:10.568Z,100564.31
2023-05-06T03:42:37.947Z,100568.14
2023-05-06T03:45:06.660Z,100568.75
2023-05-06T03:47:33.747Z,100567.34
2023-05-06T03:50:01.824Z,100564.39
2023-05-06T03:52:30.095Z,100546.22
2023-05-06T03:54:58.489Z,100550.60
2023-05-06T03:57:27.814Z,100551.14
2023-05-06T03:59:56.231Z,100548.30
2023-05-06T04:02:23.873Z,100550.79
2023-05-06T04:04:51.502Z,100556.59
2023-05-06T04:07:18.339Z,100557.02
2023-05-06T04:09:45.263Z,100559.21
2023-05-06T04:12:12.120Z,100564.23
2023-05-06T04:14:39.717Z,100566.67
2023-05-06T04:17:07.991Z,100570.13
2023-05-06T04:19:34.966Z,100568.76
2023-05-06T04:22:02.595Z,100569.92
2023-05-06T04:24:31.425Z,100567.02
2023-05-06T04:26:59.357Z,100567.80
2023-05-06T04:29:27.144Z,100565.78
2023-05-06T04:31:58.188Z,100571.65
2023-05-06T04:34:27.947Z,100582.14
2023-05-06T04:36:58.216Z,100584.23
2023-05-06T04:39:49.007Z,100581.40
2023-05-06T04:42:17.135Z,100586.05
2023-05-06T04:44:52.166Z,100594.02
2023-05-06T04:47:21.279Z,100591.95
2023-05-06T04:49:49.795Z,100594.54
2023-05-06T04:52:17.203Z,100599.75
2023-05-06T04:54:45.669Z,100596.23
2023-05-06T04:57:13.138Z,100593.55
2023-05-06T04:59:41.852Z,100590.11
2023-05-06T05:02:09.129Z,100590.42
2023-05-06T05:04:37.064Z,100589.39
2023-05-06T05:07:04.321Z,100585.08
2023-05-06T05:09:31.624Z,100588.92
2023-05-06T05:11:58.525Z,100585.85
2023-05-06T05:14:26.462Z,100585.50
2023-05-06T05:16:53.509Z,100583.11
2023-05-06T05:19:21.464Z,100586.70
2023-05-06T05:21:49.346Z,100584.03
2023-05-06T05:24:17.083Z,100587.77
2023-05-06T05:26:43.886Z,100589.22
2023-05-06T05:29:11.416Z,100592.20
2023-05-06T05:31:38.535Z,100590.41
2023-05-06T05:34:06.750Z,100589.67
2023-05-06T05:36:33.795Z,100590.30
2023-05-06T05:39:02.427Z,100587.58
2023-05-06T05:41:29.957Z,100586.61
2023-05-06T05:43:56.830Z,100585.61
2023-05-06T05:46:24.018Z,100588.29
2023-05-06T05:48:51.483Z,100592.26
2023-05-06T05:51:18.523Z,100593.07
2023-05-06T05:53:45.730Z,100593.86
2023-05-06T05:56:13.321Z,100587.00
2023-05-06T05:58:40.943Z,100594.42
2023-05-06T06:01:08.503Z,100592.77
2023-05-06T06:03:35.898Z,100590.42
2023-05-06T06:06:02.954Z,100596.11
2023-05-06T06:08:31.865Z,100595.08
2023-05-06T06:10:59.250Z,100601.30
2023-05-06T06:13:30.543Z,100601.04
2023-05-06T06:15:58.674Z,100603.04
2023-05-06T06:18:25.641Z,100608.66
2023-05-06T06:20:53.498Z,100605.50
2023-05-06T06:23:21.078Z,100603.53
2023-05-06T06:25:48.036Z,100605.98
2023-05-06T06:28:15.730Z,100603.92
2023-05-06T06:30:43.790Z,100609.44
2023-05-06T06:33:10.569Z,100604.27
2023-05-06T06:35:37.360Z,100606.38
2023-05-06T06:38:04.149Z,100609.02
2023-05-06T06:40:31.132Z,100608.78
2023-05-06T06:42:57.995Z,100613.68
2023-05-06T06:45:51.176Z,100611.75
2023-05-06T06:48:18.099Z,100614.34
2023-05-06T06:50:45.194Z,100620.67
2023-05-06T06:53:12.005Z,100625.23
2023-05-06T06:55:38.857Z,100621.16
2023-05-06T06:58:05.871Z,100617.73
2023-05-06T07:00:32.823Z,100620.93
2023-05-06T07:02:59.686Z,100617.92
2023-05-06T07:05:27.483Z,100616.98
2023-05-06T07:07:54.934Z,100620.66
2023-05-06T07:10:22.348Z,100620.83
2023-05-06T07:12:49.165Z,100619.08
2023-05-06T07:15:15.999Z,100617.77
2023-05-06T07:17:42.962Z,100617.23
2023-05-06T07:20:10.672Z,100614.80
2023-05-06T07:22:37.531Z,100618.06
2023-05-06T07:25:04.674Z,100625.63
2023-05-06T07:27:31.596Z,100622.30
2023-05-06T07:29:58.477Z,100622.64
2023-05-06T07:32:25.256Z,100620.89
2023-05-06T07:34:52.075Z,100612.85
2023-05-06T07:37:18.818Z,100607.59
2023-05-06T07:39:45.687Z,100618.54
2023-05-06T07:42:13.218Z,100619.70
2023-05-06T07:44:40.255Z,100616.36
2023-05-06T07:47:07.398Z,100614.41
2023-05-06T07:49:35.263Z,100616.08
2023-05-06T07:54:08.416Z,100618.38
2023-05-06T07:56:35.517Z,100623.15
2023-05-06T07:59:02.194Z,100619.00
2023-05-06T08:01:28.985Z,100628.23
2023-05-06T08:03:55.831Z,100628.88
2023-05-06T08:06:22.904Z,100623.88
2023-05-06T08:08:49.567Z,100625.77
2023-05-06T08:11:17.491Z,100620.38
2023-05-06T08:13:46.466Z,100629.72
2023-05-06T08:16:13.124Z,100636.57
2023-05-06T08:18:40.097Z,100638.29
2023-05-06T08:21:06.657Z,100634.50
2023-05-06T08:23:34.780Z,100641.85
2023-05-06T08:26:01.470Z,100638.36
2023-05-06T08:28:28.785Z,100631.98
2023-05-06T08:30:55.449Z,100639.40
2023-05-06T08:33:22.416Z,100633.38
2023-05-06T08:35:50.226Z,100632.93
2023-05-06T08:38:18.243Z,100640.05
2023-05-06T08:40:44.948Z,100642.30
2023-05-06T08:43:15.108Z,100639.23
2023-05-06T08:45:42.114Z,100634.31
2023-05-06T08:48:09.235Z,100635.73
2023-05-06T08:50:42.545Z,100637.02
2023-05-06T08:53:12.910Z,100634.30
2023-05-06T08:55:42.940Z,100640.39
2023-05-06T08:58:11.135Z,100639.98
2023-05-06T09:00:37.882Z,100637.17
2023-05-06T09:03:05.263Z,100641.13
2023-05-06T09:05:31.848Z,100642.40
2023-05-06T09:07:58.870Z,100642.35
2023-05-06T09:10:30.982Z,100643.77
2023-05-06T09:12:57.669Z,100643.11
2023-05-06T09:15:25.911Z,100649.96
2023-05-06T09:17:53.477Z,100646.11
2023-05-06T09:20:20.228Z,100648.67
2023-05-06T09:22:47.092Z,100647.20
2023-05-06T09:25:13.737Z,100647.30
2023-05-06T09:27:40.570Z,100643.41
2023-05-06T09:30:08.971Z,100648.48
2023-05-06T09:32:39.125Z,100637.48
2023-05-06T09:35:08.228Z,100636.83
2023-05-06T09:37:35.724Z,100639.90
2023-05-06T09:40:02.645Z,100634.34
2023-05-06T09:42:30.357Z,100635.17
2023-05-06T09:45:01.374Z,100639.98
2023-05-06T09:47:33.211Z,100635.34
2023-05-06T09:50:02.795Z,100624.28
2023-05-06T09:52:30.508Z,100621.60
2023-05-06T09:54:57.161Z,100624.47
2023-05-06T09:57:23.878Z,100620.40
2023-05-06T09:59:51.628Z,100617.19
2023-05-06T10:02:18.877Z,100608.05
2023-05-06T10:04:45.865Z,100615.81
2023-05-06T10:07:13.360Z,100610.34
2023-05-06T10:09:40.587Z,100612.79
2023-05-06T10:12:08.235Z,100609.36
2023-05-06T10:14:37.240Z,100607.86
2023-05-06T10:17:07.510Z,100618.72
2023-05-06T10:19:34.348Z,100612.88
2023-05-06T10:22:07.684Z,100612.61
2023-05-06T10:24:40.185Z,100616.10
2023-05-06T10:27:07.299Z,100616.25
2023-05-06T10:29:35.218Z,100612.65
2023-05-06T10:32:02.631Z,100616.47
2023-05-06T10:34:31.831Z,100619.56
2023-05-06T10:36:58.378Z,100630.52
2023-05-06T10:39:25.497Z,100630.68
2023-05-06T10:41:52.147Z,100629.41
2023-05-06T10:44:46.584Z,100630.25
2023-05-06T10:47:13.148Z,100634.02
2023-05-06T10:49:39.655Z,100633.65
2023-05-06T10:52:13.367Z,100628.88
2023-05-06T10:54:49.988Z,100627.33
2023-05-06T10:57:16.550Z,100624.59
2023-05-06T10:59:46.355Z,100623.02
2023-05-06T11:02:13.126Z,100625.23
2023-05-06T11:04:39.972Z,100628.98
2023-05-06T11:07:14.395Z,100625.09
2023-05-06T11:10:13.423Z,100624.46
2023-05-06T11:12:45.922Z,100614.73
2023-05-06T11:15:43.075Z,100610.83
2023-05-06T11:18:25.812Z,100608.23
2023-05-06T11:20:59.784Z,100609.60
2023-05-06T11:23:41.953Z,100606.60
2023-05-06T11:26:09.408Z,100610.09
2023-05-06T11:28:36.022Z,100606.86
2023-05-06T11:31:02.715Z,100599.27
2023-05-06T11:33:32.889Z,100594.29
2023-05-06T11:36:00.018Z,100592.14
2023-05-06T11:38:39.953Z,100591.45
2023-05-06T11:41:06.710Z,100589.68
2023-05-06T11:43:33.869Z,100586.24
2023-05-06T11:46:00.539Z,100583.59
2023-05-06T11:48:27.088Z,100578.92
2023-05-06T11:50:53.983Z,100585.16
2023-05-06T11:53:22.398Z,100583.09
2023-05-06T11:55:51.040Z,100583.97
2023-05-06T11:58:27.407Z,100580.73
2023-05-06T12:00:58.469Z,100572.91
2023-05-06T12:03:25.906Z,100568.48
2023-05-06T12:05:52.895Z,100572.38
2023-05-06T12:08:27.877Z,100575.50
2023-05-06T12:10:56.115Z,100575.45
2023-05-06T12:13:22.996Z,100572.35
2023-05-06T12:15:49.793Z,100574.55
2023-05-06T12:18:17.057Z,100568.88
2023-05-06T12:20:43.634Z,100570.39
2023-05-06T12:23:14.323Z,100571.14
2023-05-06T12:25:42.174Z,100570.53
2023-05-06T12:28:19.136Z,100576.82
2023-05-06T12:30:45.917Z,100573.90
2023-05-06T12:33:13.871Z,100570.83
2023-05-06T12:35:40.675Z,100572.21
2023-05-06T12:38:11.688Z,100567.34
2023-05-06T12:40:38.643Z,100563.60
2023-05-06T12:43:05.607Z,100563.45
2023-05-06T12:45:32.300Z,100564.25
2023-05-06T12:48:03.270Z,100564.28
2023-05-06T12:50:31.245Z,100562.32
2023-05-06T12:52:57.908Z,100564.75
2023-05-06T12:55:27.296Z,100564.23
2023-05-06T12:57:55.534Z,100570.03
2023-05-06T13:00:23.422Z,100566.09
2023-05-06T13:02:50.100Z,100557.58
2023-05-06T13:05:16.830Z,100558.16
2023-05-06T13:07:43.454Z,100566.45
2023-05-06T13:10:10.917Z,100563.77
2023-05-06T13:12:38.027Z,100560.46
2023-05-06T13:15:05.197Z,100561.96
2023-05-06T13:17:32.148Z,100556.27
2023-05-06T13:19:58.766Z,100551.20
2023-05-06T13:22:25.363Z,100560.58
2023-05-06T13:24:52.962Z,100565.80
2023-05-06T13:27:19.519Z,100561.85
2023-05-06T13:29:46.060Z,100559.73
2023-05-06T13:32:12.649Z,100562.45
2023-05-06T13:34:39.397Z,100554.66
2023-05-06T13:37:07.106Z,100547.79
2023-05-06T13:39:34.513Z,100543.02
2023-05-06T13:42:02.043Z,100540.84
2023-05-06T13:44:29.126Z,100546.03
2023-05-06T13:46:56.083Z,100550.56
2023-05-06T13:49:22.692Z,100553.53
2023-05-06T13:51:49.461Z,100551.38
2023-05-06T13:54:16.193Z,100552.95
2023-05-06T13:56:43.027Z,100553.84
2023-05-06T13:59:11.194Z,100547.81
2023-05-06T14:01:38.574Z,100545.86
2023-05-06T14:04:05.356Z,100544.21
2023-05-06T14:06:32.756Z,100557.20
2023-05-06T14:08:59.770Z,100565.48
2023-05-06T14:11:26.284Z,100562.71
2023-05-06T14:13:53.461Z,100564.21
2023-05-06T14:16:20.079Z,100565.28
2023-05-06T14:18:46.986Z,100565.63
2023-05-06T14:21:13.715Z,100560.81
2023-05-06T14:23:40.342Z,100564.98
2023-05-06T14:26:07.140Z,100569.42
2023-05-06T14:28:34.006Z,100566.80
2023-05-06T14:31:00.612Z,100557.63
2023-05-06T14:33:27.188Z,100555.63
2023-05-06T14:35:53.898Z,100550.63
2023-05-06T14:38:20.393Z,100546.18
2023-05-06T14:40:46.866Z,100539.63
2023-05-06T14:43:13.831Z,100535.72
2023-05-06T14:45:40.374Z,100537.13
2023-05-06T14:48:06.956Z,100533.30
2023-05-06T14:50:34.120Z,100527.76
2023-05-06T14:53:02.949Z,100528.11
2023-05-06T14:55:32.990Z,100523.88
2023-05-06T14:57:59.746Z,100524.50
2023-05-06T15:00:26.433Z,100524.80
2023-05-06T15:02:53.293Z,100528.15
2023-05-06T15:05:20.011Z,100528.23
2023-05-06T15:07:46.769Z,100527.85
2023-05-06T15:10:13.476Z,100530.62
2023-05-06T15:12:40.414Z,100528.16
2023-05-06T15:15:07.707Z,100532.92
2023-05-06T15:17:34.492Z,100536.67
2023-05-06T15:20:01.350Z,100542.15
2023-05-06T15:22:28.194Z,100532.71
2023-05-06T15:24:54.782Z,100536.24
2023-05-06T15:27:21.412Z,100533.83
2023-05-06T15:29:48.248Z,100536.65
2023-05-06T15:32:14.780Z,100537.27
2023-05-06T15:34:41.436Z,100533.35
2023-05-06T15:37:08.124Z,100537.38
2023-05-06T15:39:38.168Z,100533.87
2023-05-06T15:42:05.652Z,100539.52
2023-05-06T15:44:33.297Z,100548.19
2023-05-06T15:47:00.418Z,100548.58
2023-05-06T15:49:49.388Z,100542.45
2023-05-06T15:52:14.020Z,100542.54
2023-05-06T15:54:41.311Z,100543.77
2023-05-06T15:57:08.129Z,100551.17
2023-05-06T15:59:35.246Z,100554.27
2023-05-06T16:04:32.869Z,100560.04
2023-05-06T16:06:59.596Z,100557.52
2023-05-06T16:09:26.216Z,100560.62
2023-05-06T16:11:54.207Z,100563.14
2023-05-06T16:14:20.975Z,100565.40
2023-05-06T16:16:47.525Z,100563.50
2023-05-06T16:19:14.054Z,100561.91
2023-05-06T16:21:40.775Z,100560.14
2023-05-06T16:24:08.087Z,100556.29
2023-05-06T16:26:36.180Z,100553.60
2023-05-06T16:29:02.969Z,100549.16
2023-05-06T16:31:30.039Z,100547.02
2023-05-06T16:33:56.844Z,100549.36
2023-05-06T16:36:23.400Z,100547.76
2023-05-06T16:38:50.082Z,100550.23
2023-05-06T16:41:16.859Z,100550.40
2023-05-06T16:43:43.529Z,100547.13
2023-05-06T16:46:10.457Z,100551.94
2023-05-06T16:48:38.032Z,100557.15
2023-05-06T16:51:04.862Z,100557.89
2023-05-06T16:53:31.731Z,100553.52
2023-05-06T16:56:00.699Z,100551.51
2023-05-06T16:58:29.590Z,100549.29
2023-05-06T17:00:56.239Z,100548.95
2023-05-06T17:03:22.911Z,100553.56
2023-05-06T17:05:49.994Z,100558.27
2023-05-06T17:08:16.604Z,100558.14
2023-05-06T17:10:43.200Z,100564.15
2023-05-06T17:13:10.022Z,100562.13
2023-05-06T17:15:36.896Z,100562.90
2023-05-06T17:18:03.624Z,100563.98
2023-05-06T17:20:31.316Z,100568.15
2023-05-06T17:22:57.994Z,100574.20
2023-05-06T17:25:24.833Z,100581.46
2023-05-06T17:27:51.483Z,100588.08
2023-05-06T17:30:18.208Z,100590.66
2023-05-06T17:32:44.931Z,100591.14
2023-05-06T17:35:12.040Z,100593.67
2023-05-06T17:37:39.220Z,100595.67
2023-05-06T17:40:07.045Z,100601.02
2023-05-06T17:42:36.021Z,100600.06
2023-05-06T17:45:02.803Z,100601.15
2023-05-06T17:47:30.226Z,100608.19
2023-05-06T17:49:57.065Z,100614.18
2023-05-06T17:52:26.192Z,100621.80
2023-05-06T17:55:10.802Z,100621.01
2023-05-06T17:57:39.944Z,100623.39
2023-05-06T18:00:14.466Z,100630.45
2023-05-06T18:02:45.154Z,100634.28
2023-05-06T18:05:13.235Z,100630.97
2023-05-06T18:07:41.884Z,100636.84
2023-05-06T18:10:09.066Z,100640.13
2023-05-06T18:12:36.296Z,100640.90
2023-05-06T18:15:04.343Z,100641.28
2023-05-06T18:17:31.752Z,100645.38
2023-05-06T18:19:58.332Z,100648.73
2023-05-06T18:22:25.027Z,100647.90
2023-05-06T18:24:55.450Z,100651.59
2023-05-06T18:27:23.180Z,100655.37
2023-05-06T18:29:50.345Z,100654.55
2023-05-06T18:32:17.456Z,100653.30
2023-05-06T18:34:43.998Z,100652.74
2023-05-06T18:37:10.682Z,100651.55
2023-05-06T18:39:44.860Z,100651.39
2023-05-06T18:42:11.383Z,100644.88
2023-05-06T18:44:39.008Z,100641.59
2023-05-06T18:47:05.967Z,100641.63
2023-05-06T18:49:32.639Z,100633.69
2023-05-06T18:51:59.402Z,100634.79
2023-05-06T18:54:25.976Z,100632.27
2023-05-06T18:56:58.167Z,100632.63
2023-05-06T18:59:25.308Z,100629.83
2023-05-06T19:01:53.247Z,100635.42
2023-05-06T19:04:20.022Z,100634.30
2023-05-06T19:06:46.679Z,100631.38
2023-05-06T19:09:13.602Z,100632.88
2023-05-06T19:11:40.227Z,100632.95
2023-05-06T19:14:06.948Z,100634.51
2023-05-06T19:16:33.810Z,100630.02
2023-05-06T19:19:02.151Z,100630.02
2023-05-06T19:21:29.109Z,100633.90
2023-05-06T19:23:59.137Z,100635.04
2023-05-06T19:26:29.237Z,100636.35
2023-05-06T19:28:55.781Z,100635.24
2023-05-06T19:31:22.804Z,100630.52
2023-05-06T19:33:49.994Z,100629.15
2023-05-06T19:36:16.713Z,100631.11
2023-05-06T19:38:43.339Z,100628.76
2023-05-06T19:41:10.344Z,100628.23
2023-05-06T19:43:41.546Z,100628.52
2023-05-06T19:46:08.851Z,100626.00
2023-05-06T19:48:36.782Z,100625.50
2023-05-06T19:51:04.191Z,100622.75
2023-05-06T19:53:32.167Z,100620.61
2023-05-06T19:56:06.843Z,100621.17
2023-05-06T19:58:33.495Z,100622.23
2023-05-06T20:01:00.314Z,100625.71
2023-05-06T20:03:26.993Z,100629.38
2023-05-06T20:05:54.190Z,100628.80
2023-05-06T20:11:26.948Z,100631.61
2023-05-06T20:13:53.870Z,100634.14
2023-05-06T20:16:20.719Z,100633.95
2023-05-06T20:18:48.393Z,100632.52
2023-05-06T20:21:16.128Z,100635.20
2023-05-06T20:23:42.877Z,100633.30
2023-05-06T20:26:09.700Z,100630.98
2023-05-06T20:28:39.227Z,100628.86
2023-05-06T20:31:07.078Z,100626.01
2023-05-06T20:33:34.085Z,100624.60
2023-05-06T20:36:00.861Z,100625.49
2023-05-06T20:38:30.256Z,100622.12
2023-05-06T20:40:58.996Z,100620.27
2023-05-06T20:43:25.933Z,100620.19
2023-05-06T20:45:52.802Z,100622.00
2023-05-06T20:48:19.849Z,100623.58
2023-05-06T20:50:46.779Z,100625.70
2023-05-06T20:53:13.680Z,100626.18
2023-05-06T20:55:40.841Z,100624.90
2023-05-06T20:58:08.013Z,100624.17
2023-05-06T21:00:34.867Z,100620.81
2023-05-06T21:03:02.141Z,100624.17
2023-05-06T21:05:29.329Z,100627.96
2023-05-06T21:07:56.103Z,100628.30
2023-05-06T21:10:22.978Z,100627.98
2023-05-06T21:12:50.941Z,100627.77
2023-05-06T21:15:17.987Z,100627.36
2023-05-06T21:17:45.077Z,100628.97
2023-05-06T21:20:13.014Z,100629.47
2023-05-06T21:22:40.139Z,100626.48
2023-05-06T21:25:08.414Z,100623.52
2023-05-06T21:27:35.991Z,100625.60
2023-05-06T21:30:03.442Z,100623.27
2023-05-06T21:32:33.327Z,100621.88
2023-05-06T21:35:03.951Z,100628.80
2023-05-06T21:37:30.783Z,100628.56
2023-05-06T21:39:57.650Z,100629.32
2023-05-06T21:42:24.414Z,100626.29
2023-05-06T21:44:51.154Z,100636.77
2023-05-06T21:47:17.900Z,100633.46
2023-05-06T21:49:44.664Z,100634.66
2023-05-06T21:52:11.537Z,100632.49
2023-05-06T21:54:38.406Z,100631.47
2023-05-06T21:57:08.164Z,100632.23
2023-05-06T21:59:35.780Z,100627.02
2023-05-06T22:02:03.520Z,100628.61
2023-05-06T22:04:30.823Z,100629.51
2023-05-06T22:06:57.678Z,100632.35
2023-05-06T22:09:24.559Z,100632.50
2023-05-06T22:11:51.953Z,100628.83
2023-05-06T22:14:21.959Z,100628.74
2023-05-06T22:16:52.805Z,100629.40
2023-05-06T22:19:20.367Z,100628.89
2023-05-06T22:21:47.339Z,100630.87
2023-05-06T22:24:14.124Z,100632.81
2023-05-06T22:26:40.987Z,100631.86
2023-05-06T22:29:07.819Z,100634.01
2023-05-06T22:31:34.679Z,100632.73
2023-05-06T22:34:04.969Z,100631.58
2023-05-06T22:36:33.682Z,100628.39
2023-05-06T22:39:01.556Z,100623.41
2023-05-06T22:41:29.706Z,100621.14
2023-05-06T22:43:57.382Z,100623.73
2023-05-06T22:46:24.228Z,100625.38
2023-05-06T22:48:51.209Z,100622.27
2023-05-06T22:51:17.924Z,100625.14
2023-05-06T22:53:45.354Z,100624.29
2023-05-06T22:56:12.146Z,100624.90
2023-05-06T22:58:38.973Z,100624.29
2023-05-06T23:01:07.471Z,100624.81
2023-05-06T23:03:35.259Z,100625.37
2023-05-06T23:06:03.958Z,100624.43
2023-05-06T23:08:30.816Z,100626.05
2023-05-06T23:10:57.550Z,100622.84
2023-05-06T23:13:24.506Z,100620.20
2023-05-06T23:15:52.037Z,100622.89
2023-05-06T23:18:19.327Z,100620.38
2023-05-06T23:20:46.105Z,100616.91
2023-05-06T23:23:12.946Z,100616.65
2023-05-06T23:25:39.763Z,100619.91
2023-05-06T23:28:06.534Z,100620.35
2023-05-06T23:30:33.830Z,100622.31
2023-05-06T23:33:00.724Z,100622.02
2023-05-06T23:35:27.598Z,100620.55
2023-05-06T23:37:54.438Z,100618.52
2023-05-06T23:40:21.246Z,100617.63
2023-05-06T23:42:48.112Z,100620.23
2023-05-06T23:45:14.985Z,100615.30
2023-05-06T23:47:42.207Z,100612.45
2023-05-06T23:50:09.708Z,100614.77
2023-05-06T23:52:38.654Z,100610.48
2023-05-06T23:55:06.216Z,100605.69
2023-05-06T23:57:33.028Z,100602.19
2023-05-06T23:59:59.828Z,100604.94
